createdAt,value
2023-01-25T00:02:07.984Z,0.90
2023-01-25T00:04:33.087Z,0.80
2023-01-25T00:06:59.446Z,0.60
2023-01-25T00:09:24.941Z,0.60
2023-01-25T00:11:49.563Z,0.70
2023-01-25T00:14:15.032Z,0.60
2023-01-25T00:16:40.291Z,0.50
2023-01-25T00:19:04.873Z,0.50
2023-01-25T00:21:29.929Z,0.50
2023-01-25T00:23:55.958Z,0.60
2023-01-25T00:26:21.327Z,0.50
2023-01-25T00:28:49.859Z,0.50
2023-01-25T00:31:22.805Z,0.50
2023-01-25T00:33:53.675Z,0.50
2023-01-25T00:36:45.876Z,0.50
2023-01-25T00:39:14.507Z,0.50
2023-01-25T00:41:39.508Z,0.60
2023-01-25T00:44:04.337Z,0.70
2023-01-25T00:46:28.834Z,0.70
2023-01-25T00:48:55.900Z,0.60
2023-01-25T00:51:20.427Z,0.60
2023-01-25T00:53:45.233Z,0.70
2023-01-25T00:56:11.262Z,0.80
2023-01-25T00:58:35.969Z,0.90
2023-01-25T01:01:03.501Z,0.90
2023-01-25T01:03:28.175Z,1.00
2023-01-25T01:06:01.786Z,1.00
2023-01-25T01:08:26.595Z,1.10
2023-01-25T01:10:51.032Z,1.00
2023-01-25T01:13:18.188Z,1.10
2023-01-25T01:15:42.639Z,1.10
2023-01-25T01:18:07.287Z,1.20
2023-01-25T01:20:32.055Z,1.20
2023-01-25T01:22:57.124Z,1.30
2023-01-25T01:25:21.576Z,1.30
2023-01-25T01:27:46.369Z,1.20
2023-01-25T01:30:13.690Z,1.20
2023-01-25T01:32:39.383Z,1.30
2023-01-25T01:35:04.473Z,1.30
2023-01-25T01:37:28.934Z,1.30
2023-01-25T01:39:53.934Z,1.30
2023-01-25T01:42:18.613Z,1.30
2023-01-25T01:44:49.022Z,1.30
2023-01-25T01:47:19.389Z,1.40
2023-01-25T01:49:51.652Z,1.40
2023-01-25T01:52:18.573Z,1.30
2023-01-25T01:54:47.317Z,1.20
2023-01-25T01:57:15.651Z,1.20
2023-01-25T01:59:44.834Z,1.20
2023-01-25T02:02:09.653Z,1.20
2023-01-25T02:04:36.793Z,1.20
2023-01-25T02:07:12.015Z,1.30
2023-01-25T02:09:38.131Z,1.20
2023-01-25T02:12:03.173Z,1.20
2023-01-25T02:14:30.483Z,1.10
2023-01-25T02:16:57.929Z,1.20
2023-01-25T02:19:36.644Z,1.30
2023-01-25T02:22:07.956Z,1.30
2023-01-25T02:24:34.503Z,1.30
2023-01-25T02:27:00.945Z,1.20
2023-01-25T02:29:30.354Z,1.20
2023-01-25T02:32:01.464Z,1.30
2023-01-25T02:34:26.176Z,1.40
2023-01-25T02:36:50.777Z,1.40
2023-01-25T02:39:20.295Z,1.30
2023-01-25T02:41:48.821Z,1.40
2023-01-25T02:44:18.405Z,1.50
2023-01-25T02:46:45.142Z,1.40
2023-01-25T02:49:11.591Z,1.50
2023-01-25T02:51:38.036Z,1.30
2023-01-25T02:54:04.075Z,1.30
2023-01-25T02:56:29.879Z,1.20
2023-01-25T02:58:55.509Z,1.20
2023-01-25T03:01:21.850Z,1.30
2023-01-25T03:03:46.427Z,1.30
2023-01-25T03:06:11.540Z,1.20
2023-01-25T03:08:37.836Z,1.20
2023-01-25T03:11:04.992Z,1.20
2023-01-25T03:13:30.596Z,1.20
2023-01-25T03:16:01.155Z,1.20
2023-01-25T03:18:28.160Z,1.10
2023-01-25T03:20:52.893Z,1.10
2023-01-25T03:23:17.650Z,1.10
2023-01-25T03:25:42.277Z,1.00
2023-01-25T03:28:32.435Z,1.00
2023-01-25T03:30:57.237Z,1.10
2023-01-25T03:33:23.033Z,1.10
2023-01-25T03:35:53.596Z,1.20
2023-01-25T03:38:19.891Z,1.20
2023-01-25T03:40:44.791Z,1.20
2023-01-25T03:43:09.465Z,1.20
2023-01-25T03:45:35.014Z,1.10
2023-01-25T03:47:59.951Z,1.20
2023-01-25T03:50:24.408Z,1.30
2023-01-25T03:53:07.290Z,1.40
2023-01-25T03:55:32.095Z,1.30
2023-01-25T03:57:57.532Z,1.20
2023-01-25T04:00:23.975Z,1.20
2023-01-25T04:02:56.589Z,1.20
2023-01-25T04:05:21.321Z,1.20
2023-01-25T04:07:45.945Z,1.20
2023-01-25T04:10:14.237Z,1.30
2023-01-25T04:12:42.573Z,1.30
2023-01-25T04:15:08.999Z,1.40
2023-01-25T04:17:33.797Z,1.50
2023-01-25T04:20:04.159Z,1.50
2023-01-25T04:22:36.551Z,1.40
2023-01-25T04:25:03.109Z,1.40
2023-01-25T04:27:29.885Z,1.40
2023-01-25T04:30:03.200Z,1.40
2023-01-25T04:32:28.794Z,1.40
2023-01-25T04:34:54.780Z,1.30
2023-01-25T04:37:22.072Z,1.40
2023-01-25T04:39:54.140Z,1.50
2023-01-25T04:42:18.897Z,1.40
2023-01-25T04:44:48.517Z,1.30
2023-01-25T04:47:13.557Z,1.20
2023-01-25T04:49:38.202Z,1.20
2023-01-25T04:52:03.018Z,1.30
2023-01-25T04:54:27.679Z,1.20
2023-01-25T04:56:52.290Z,1.20
2023-01-25T04:59:18.402Z,1.20
2023-01-25T05:01:45.647Z,1.20
2023-01-25T05:04:10.247Z,1.20
2023-01-25T05:06:38.435Z,1.30
2023-01-25T05:09:03.754Z,1.30
2023-01-25T05:11:30.405Z,1.30
2023-01-25T05:14:10.036Z,1.30
2023-01-25T05:16:34.833Z,1.30
2023-01-25T05:19:02.401Z,1.30
2023-01-25T05:21:54.523Z,1.30
2023-01-25T05:24:20.821Z,1.10
2023-01-25T05:27:03.441Z,1.10
2023-01-25T05:29:47.801Z,1.20
2023-01-25T05:32:15.376Z,1.20
2023-01-25T05:34:42.136Z,1.30
2023-01-25T05:37:08.813Z,1.30
2023-01-25T05:39:37.292Z,1.30
2023-01-25T05:42:02.267Z,1.30
2023-01-25T05:44:26.997Z,1.40
2023-01-25T05:46:52.522Z,1.30
2023-01-25T05:49:17.451Z,1.30
2023-01-25T05:51:44.011Z,1.40
2023-01-25T05:54:13.564Z,1.50
2023-01-25T05:56:41.951Z,1.50
2023-01-25T05:59:07.062Z,1.60
2023-01-25T06:01:31.923Z,1.60
2023-01-25T06:03:57.346Z,1.60
2023-01-25T06:06:23.817Z,1.50
2023-01-25T06:08:50.406Z,1.50
2023-01-25T06:11:17.498Z,1.50
2023-01-25T06:13:43.429Z,1.50
2023-01-25T06:16:09.269Z,1.70
2023-01-25T06:18:39.873Z,1.60
2023-01-25T06:21:17.325Z,1.70
2023-01-25T06:23:44.924Z,1.70
2023-01-25T06:26:14.316Z,1.70
2023-01-25T06:28:39.909Z,1.70
2023-01-25T06:31:09.114Z,1.60
2023-01-25T06:33:34.072Z,1.50
2023-01-25T06:36:01.783Z,1.30
2023-01-25T06:38:26.869Z,1.40
2023-01-25T06:40:51.262Z,1.50
2023-01-25T06:43:18.136Z,1.50
2023-01-25T06:45:42.677Z,1.40
2023-01-25T06:48:09.006Z,1.50
2023-01-25T06:50:33.510Z,1.50
2023-01-25T06:52:58.649Z,1.50
2023-01-25T06:55:23.698Z,1.50
2023-01-25T06:57:58.551Z,1.50
2023-01-25T07:00:25.286Z,1.60
2023-01-25T07:02:49.806Z,1.60
2023-01-25T07:05:14.591Z,1.60
2023-01-25T07:07:39.564Z,1.50
2023-01-25T07:10:04.837Z,1.40
2023-01-25T07:12:30.908Z,1.40
2023-01-25T07:14:55.458Z,1.50
2023-01-25T07:17:21.559Z,1.60
2023-01-25T07:19:46.027Z,1.60
2023-01-25T07:22:10.862Z,1.50
2023-01-25T07:24:35.424Z,1.40
2023-01-25T07:27:00.754Z,1.40
2023-01-25T07:29:25.640Z,1.40
2023-01-25T07:31:50.283Z,1.40
2023-01-25T07:34:17.128Z,1.40
2023-01-25T07:36:43.774Z,1.40
2023-01-25T07:39:10.352Z,1.60
2023-01-25T07:41:34.904Z,1.80
2023-01-25T07:43:59.594Z,1.50
2023-01-25T07:46:32.664Z,1.20
2023-01-25T07:48:59.058Z,1.30
2023-01-25T07:51:28.588Z,1.30
2023-01-25T07:53:54.595Z,1.30
2023-01-25T07:56:20.325Z,1.30
2023-01-25T07:58:45.912Z,1.30
2023-01-25T08:01:11.163Z,1.40
2023-01-25T08:03:36.010Z,1.40
2023-01-25T08:06:00.769Z,1.30
2023-01-25T08:08:27.661Z,1.20
2023-01-25T08:10:52.645Z,1.20
2023-01-25T08:13:17.094Z,1.30
2023-01-25T08:15:41.721Z,1.40
2023-01-25T08:18:06.508Z,1.50
2023-01-25T08:20:31.131Z,1.50
2023-01-25T08:22:55.762Z,1.60
2023-01-25T08:25:21.901Z,1.60
2023-01-25T08:27:46.697Z,1.70
2023-01-25T08:30:13.105Z,1.70
2023-01-25T08:32:38.237Z,1.70
2023-01-25T08:35:02.917Z,1.70
2023-01-25T08:37:29.740Z,1.70
2023-01-25T08:39:54.263Z,1.70
2023-01-25T08:42:21.535Z,1.80
2023-01-25T08:44:46.042Z,1.80
2023-01-25T08:47:10.947Z,1.70
2023-01-25T08:49:36.267Z,1.70
2023-01-25T08:52:01.084Z,1.70
2023-01-25T08:54:25.730Z,1.90
2023-01-25T08:56:50.809Z,2.00
2023-01-25T08:59:17.300Z,2.00
2023-01-25T09:01:42.054Z,1.80
2023-01-25T09:04:07.075Z,1.70
2023-01-25T09:06:32.085Z,1.80
2023-01-25T09:08:56.888Z,1.80
2023-01-25T09:11:24.196Z,1.60
2023-01-25T09:13:49.831Z,1.70
2023-01-25T09:16:18.369Z,1.80
2023-01-25T09:18:45.004Z,1.90
2023-01-25T09:21:11.548Z,1.80
2023-01-25T09:23:50.276Z,1.80
2023-01-25T09:26:22.119Z,1.90
2023-01-25T09:28:49.838Z,2.00
2023-01-25T09:31:22.346Z,2.00
2023-01-25T09:34:20.691Z,2.00
2023-01-25T09:36:45.837Z,2.00
2023-01-25T09:39:12.414Z,2.10
2023-01-25T09:42:06.573Z,2.20
2023-01-25T09:44:47.358Z,2.20
2023-01-25T09:47:22.383Z,2.00
2023-01-25T09:50:13.065Z,1.90
2023-01-25T09:53:00.651Z,1.90
2023-01-25T09:55:29.218Z,2.10
2023-01-25T09:57:56.868Z,2.10
2023-01-25T10:00:25.747Z,2.10
2023-01-25T10:02:56.963Z,2.10
2023-01-25T10:05:24.938Z,2.10
2023-01-25T10:07:59.588Z,2.00
2023-01-25T10:10:29.597Z,1.70
2023-01-25T10:12:53.812Z,1.90
2023-01-25T10:15:22.564Z,2.00
2023-01-25T10:17:47.472Z,1.90
2023-01-25T10:20:25.946Z,2.10
2023-01-25T10:22:54.666Z,2.00
2023-01-25T10:25:30.610Z,2.10
2023-01-25T10:28:10.244Z,2.00
2023-01-25T10:30:42.666Z,1.90
2023-01-25T10:33:14.699Z,1.80
2023-01-25T10:35:47.220Z,2.00
2023-01-25T10:38:18.488Z,2.00
2023-01-25T10:40:47.624Z,2.00
2023-01-25T10:43:18.140Z,2.00
2023-01-25T10:45:43.245Z,2.20
2023-01-25T10:48:13.504Z,2.20
2023-01-25T10:50:48.429Z,2.30
2023-01-25T10:53:26.650Z,2.20
2023-01-25T10:56:14.045Z,2.20
2023-01-25T10:58:40.058Z,2.30
2023-01-25T11:01:08.242Z,2.30
2023-01-25T11:03:45.863Z,2.30
2023-01-25T11:06:12.473Z,2.10
2023-01-25T11:08:38.438Z,2.20
2023-01-25T11:11:26.581Z,2.10
2023-01-25T11:13:51.224Z,2.20
2023-01-25T11:16:29.097Z,2.30
2023-01-25T11:18:55.879Z,2.30
2023-01-25T11:21:23.815Z,2.40
2023-01-25T11:24:00.473Z,2.50
2023-01-25T11:26:25.286Z,2.50
2023-01-25T11:28:49.884Z,2.40
2023-01-25T11:31:16.023Z,2.50
2023-01-25T11:33:43.681Z,2.50
2023-01-25T11:36:23.984Z,2.60
2023-01-25T11:39:16.071Z,2.70
2023-01-25T11:42:00.588Z,2.60
2023-01-25T11:44:48.548Z,2.50
2023-01-25T11:47:27.435Z,2.50
2023-01-25T11:49:59.456Z,2.60
2023-01-25T11:52:32.543Z,2.50
2023-01-25T11:55:11.314Z,2.40
2023-01-25T11:57:47.584Z,2.40
2023-01-25T12:00:36.687Z,2.50
2023-01-25T12:03:49.164Z,2.70
2023-01-25T12:06:19.498Z,2.70
2023-01-25T12:09:01.580Z,2.70
2023-01-25T12:11:42.140Z,2.90
2023-01-25T12:14:14.399Z,3.00
2023-01-25T12:17:08.420Z,3.00
2023-01-25T12:19:44.715Z,2.90
2023-01-25T12:22:37.532Z,2.80
2023-01-25T12:25:08.891Z,2.80
2023-01-25T12:27:51.684Z,2.90
2023-01-25T12:30:27.232Z,3.00
2023-01-25T12:33:09.011Z,2.90
2023-01-25T12:35:41.264Z,2.70
2023-01-25T12:38:12.710Z,2.70
2023-01-25T12:40:46.152Z,2.70
2023-01-25T12:43:17.944Z,2.70
2023-01-25T12:45:45.234Z,2.70
2023-01-25T12:48:18.404Z,2.50
2023-01-25T12:50:48.432Z,2.60
2023-01-25T12:53:23.695Z,2.70
2023-01-25T12:55:48.939Z,2.40
2023-01-25T12:58:37.010Z,2.50
2023-01-25T13:01:10.752Z,2.70
2023-01-25T13:03:41.907Z,2.70
2023-01-25T13:06:16.454Z,2.80
2023-01-25T13:08:49.822Z,2.50
2023-01-25T13:11:20.829Z,2.60
2023-01-25T13:13:46.988Z,2.60
2023-01-25T13:16:37.768Z,2.50
2023-01-25T13:19:02.984Z,2.40
2023-01-25T13:21:45.073Z,2.40
2023-01-25T13:24:21.427Z,2.40
2023-01-25T13:27:05.332Z,2.40
2023-01-25T13:30:03.403Z,2.50
2023-01-25T13:32:56.495Z,2.60
2023-01-25T13:35:43.430Z,2.50
2023-01-25T13:38:31.687Z,2.50
2023-01-25T13:41:24.206Z,2.60
2023-01-25T13:44:09.245Z,2.70
2023-01-25T13:46:35.109Z,2.50
2023-01-25T13:49:05.423Z,2.50
2023-01-25T13:51:36.171Z,2.40
2023-01-25T13:54:01.387Z,2.40
2023-01-25T13:56:35.159Z,2.40
2023-01-25T13:59:04.973Z,2.30
2023-01-25T14:01:32.964Z,2.40
2023-01-25T14:04:02.155Z,2.40
2023-01-25T14:06:28.945Z,2.40
2023-01-25T14:08:55.118Z,2.30
2023-01-25T14:11:21.544Z,2.40
2023-01-25T14:13:58.372Z,2.50
2023-01-25T14:16:22.968Z,2.40
2023-01-25T14:18:47.455Z,2.30
2023-01-25T14:21:18.334Z,2.20
2023-01-25T14:23:42.927Z,2.20
2023-01-25T14:26:21.473Z,2.30
2023-01-25T14:28:59.008Z,2.10
2023-01-25T14:31:36.993Z,2.00
2023-01-25T14:34:04.352Z,2.00
2023-01-25T14:36:37.393Z,2.10
2023-01-25T14:39:04.774Z,2.20
2023-01-25T14:41:33.888Z,2.20
2023-01-25T14:44:00.485Z,2.30
2023-01-25T14:46:28.092Z,2.50
2023-01-25T14:48:53.960Z,2.40
2023-01-25T14:51:26.110Z,2.40
2023-01-25T14:53:58.066Z,2.30
2023-01-25T14:56:32.178Z,2.30
2023-01-25T14:58:59.969Z,2.20
2023-01-25T15:01:33.291Z,2.20
2023-01-25T15:03:57.927Z,2.10
2023-01-25T15:06:22.478Z,2.20
2023-01-25T15:08:47.767Z,2.20
2023-01-25T15:11:49.005Z,2.20
2023-01-25T15:14:19.187Z,2.20
2023-01-25T15:16:43.707Z,2.30
2023-01-25T15:19:26.759Z,2.40
2023-01-25T15:21:51.544Z,2.50
2023-01-25T15:24:15.964Z,2.40
2023-01-25T15:26:42.793Z,2.40
2023-01-25T15:29:14.811Z,2.40
2023-01-25T15:31:39.770Z,2.30
2023-01-25T15:34:05.311Z,2.40
2023-01-25T15:36:30.805Z,2.30
2023-01-25T15:38:55.694Z,2.30
2023-01-25T15:41:20.268Z,2.30
2023-01-25T15:43:46.266Z,2.20
2023-01-25T15:46:17.824Z,2.20
2023-01-25T15:48:44.148Z,2.30
2023-01-25T15:51:08.903Z,2.30
2023-01-25T15:53:33.389Z,2.30
2023-01-25T15:56:01.322Z,2.30
2023-01-25T15:58:28.860Z,2.10
2023-01-25T16:00:54.628Z,2.10
2023-01-25T16:03:26.040Z,2.20
2023-01-25T16:05:52.166Z,2.20
2023-01-25T16:08:18.282Z,2.10
2023-01-25T16:10:43.018Z,1.90
2023-01-25T16:13:09.692Z,1.80
2023-01-25T16:15:34.394Z,1.80
2023-01-25T16:18:00.317Z,1.80
2023-01-25T16:20:24.870Z,1.90
2023-01-25T16:22:49.470Z,2.10
2023-01-25T16:25:13.991Z,2.10
2023-01-25T16:27:38.696Z,2.20
2023-01-25T16:30:03.932Z,2.20
2023-01-25T16:32:28.959Z,2.00
2023-01-25T16:34:54.818Z,1.90
2023-01-25T16:37:19.627Z,1.80
2023-01-25T16:39:44.293Z,1.70
2023-01-25T16:42:13.426Z,1.70
2023-01-25T16:44:37.877Z,1.70
2023-01-25T16:47:03.877Z,1.60
2023-01-25T16:49:30.488Z,1.70
2023-01-25T16:51:56.733Z,1.60
2023-01-25T16:54:21.767Z,1.70
2023-01-25T16:56:46.331Z,1.60
2023-01-25T16:59:11.893Z,1.60
2023-01-25T17:01:38.439Z,1.50
2023-01-25T17:04:02.927Z,1.60
2023-01-25T17:06:29.213Z,1.60
2023-01-25T17:08:58.833Z,1.50
2023-01-25T17:11:23.421Z,1.60
2023-01-25T17:13:50.391Z,1.50
2023-01-25T17:16:14.995Z,1.40
2023-01-25T17:18:40.032Z,1.40
2023-01-25T17:21:06.870Z,1.50
2023-01-25T17:23:33.404Z,1.50
2023-01-25T17:25:59.170Z,1.60
2023-01-25T17:28:24.235Z,1.70
2023-01-25T17:30:54.082Z,1.70
2023-01-25T17:33:19.304Z,1.70
2023-01-25T17:35:43.680Z,1.70
2023-01-25T17:38:09.540Z,1.70
2023-01-25T17:40:35.893Z,1.70
2023-01-25T17:43:01.752Z,1.70
2023-01-25T17:45:27.404Z,1.80
2023-01-25T17:47:51.806Z,1.70
2023-01-25T17:50:16.449Z,1.70
2023-01-25T17:52:40.855Z,1.70
2023-01-25T17:55:06.885Z,1.80
2023-01-25T17:57:31.644Z,1.80
2023-01-25T17:59:57.849Z,1.80
2023-01-25T18:02:22.931Z,1.90
2023-01-25T18:04:47.266Z,1.90
2023-01-25T18:07:11.752Z,1.90
2023-01-25T18:09:36.151Z,1.90
2023-01-25T18:12:00.649Z,1.90
2023-01-25T18:14:25.302Z,1.90
2023-01-25T18:16:51.636Z,1.90
2023-01-25T18:19:16.218Z,2.00
2023-01-25T18:21:42.369Z,1.90
2023-01-25T18:24:25.993Z,1.80
2023-01-25T18:26:52.681Z,1.80
2023-01-25T18:29:37.642Z,1.90
2023-01-25T18:32:03.569Z,1.90
2023-01-25T18:34:28.005Z,2.00
2023-01-25T18:36:52.525Z,2.00
2023-01-25T18:39:16.942Z,2.00
2023-01-25T18:41:42.846Z,2.00
2023-01-25T18:44:08.871Z,2.00
2023-01-25T18:46:33.504Z,2.00
2023-01-25T18:48:59.358Z,2.00
2023-01-25T18:51:23.903Z,2.00
2023-01-25T18:53:48.424Z,2.00
2023-01-25T18:56:14.591Z,2.00
2023-01-25T18:58:41.082Z,1.90
2023-01-25T19:01:09.434Z,2.00
2023-01-25T19:03:34.382Z,2.00
2023-01-25T19:06:00.999Z,2.00
2023-01-25T19:08:26.586Z,2.00
2023-01-25T19:10:51.041Z,1.90
2023-01-25T19:13:15.667Z,1.80
2023-01-25T19:15:40.135Z,1.70
2023-01-25T19:18:04.993Z,1.80
2023-01-25T19:20:30.450Z,1.70
2023-01-25T19:22:56.723Z,1.60
2023-01-25T19:25:22.200Z,1.60
2023-01-25T19:27:46.747Z,1.50
2023-01-25T19:30:12.520Z,1.50
2023-01-25T19:32:37.227Z,1.70
2023-01-25T19:35:02.957Z,1.60
2023-01-25T19:37:28.199Z,1.70
2023-01-25T19:39:54.245Z,1.60
2023-01-25T19:42:18.844Z,1.60
2023-01-25T19:44:43.506Z,1.60
2023-01-25T19:47:08.165Z,1.50
2023-01-25T19:49:32.617Z,1.40
2023-01-25T19:51:57.288Z,1.40
2023-01-25T19:54:23.242Z,1.50
2023-01-25T19:56:50.291Z,1.50
2023-01-25T19:59:16.403Z,1.60
2023-01-25T20:01:44.200Z,1.60
2023-01-25T20:04:09.262Z,1.60
2023-01-25T20:06:34.508Z,1.60
2023-01-25T20:08:58.999Z,1.70
2023-01-25T20:11:25.906Z,1.60
2023-01-25T20:13:53.505Z,1.60
2023-01-25T20:16:19.464Z,1.50
2023-01-25T20:18:44.981Z,1.50
2023-01-25T20:21:12.190Z,1.50
2023-01-25T20:23:39.046Z,1.60
2023-01-25T20:26:05.787Z,1.60
2023-01-25T20:28:31.055Z,1.50
2023-01-25T20:30:58.515Z,1.40
2023-01-25T20:33:23.106Z,1.50
2023-01-25T20:35:47.695Z,1.50
2023-01-25T20:38:12.711Z,1.40
2023-01-25T20:40:37.473Z,1.40
2023-01-25T20:43:02.137Z,1.50
2023-01-25T20:45:26.950Z,1.50
2023-01-25T20:47:53.189Z,1.30
2023-01-25T20:50:18.198Z,1.30
2023-01-25T20:52:42.596Z,1.40
2023-01-25T20:55:07.793Z,1.50
2023-01-25T20:57:32.543Z,1.50
2023-01-25T20:59:56.959Z,1.60
2023-01-25T21:02:21.403Z,1.70
2023-01-25T21:04:47.769Z,1.60
2023-01-25T21:07:12.269Z,1.60
2023-01-25T21:09:37.098Z,1.60
2023-01-25T21:12:01.543Z,1.50
2023-01-25T21:14:26.123Z,1.40
2023-01-25T21:16:50.576Z,1.50
2023-01-25T21:19:15.439Z,1.40
2023-01-25T21:21:41.753Z,1.50
2023-01-25T21:24:07.513Z,1.70
2023-01-25T21:26:34.100Z,1.60
2023-01-25T21:29:00.772Z,1.60
2023-01-25T21:31:27.097Z,1.70
2023-01-25T21:33:51.710Z,1.70
2023-01-25T21:36:17.381Z,1.70
2023-01-25T21:38:44.887Z,1.70
2023-01-25T21:41:13.128Z,1.50
2023-01-25T21:43:52.066Z,1.60
2023-01-25T21:46:25.495Z,1.50
2023-01-25T21:49:07.585Z,1.60
2023-01-25T21:51:39.615Z,1.70
2023-01-25T21:54:06.158Z,1.70
2023-01-25T21:56:30.995Z,1.70
2023-01-25T21:58:55.508Z,1.70
2023-01-25T22:01:20.243Z,1.60
2023-01-25T22:03:48.826Z,1.50
2023-01-25T22:06:13.156Z,1.50
2023-01-25T22:08:37.787Z,1.50
2023-01-25T22:11:08.455Z,1.50
2023-01-25T22:13:33.003Z,1.40
2023-01-25T22:16:01.194Z,1.50
2023-01-25T22:18:25.921Z,1.50
2023-01-25T22:20:56.943Z,1.50
2023-01-25T22:23:21.596Z,1.50
2023-01-25T22:25:47.504Z,1.40
2023-01-25T22:28:15.614Z,1.30
2023-01-25T22:30:40.104Z,1.30
2023-01-25T22:33:04.570Z,1.40
2023-01-25T22:35:29.048Z,1.40
2023-01-25T22:37:53.455Z,1.40
2023-01-25T22:40:18.125Z,1.40
2023-01-25T22:42:42.861Z,1.40
2023-01-25T22:45:10.588Z,1.50
2023-01-25T22:47:35.165Z,1.30
2023-01-25T22:49:59.682Z,1.50
2023-01-25T22:52:24.275Z,1.40
2023-01-25T22:54:50.348Z,1.50
2023-01-25T22:57:15.005Z,1.40
2023-01-25T22:59:39.500Z,1.40
2023-01-25T23:02:05.447Z,1.40
2023-01-25T23:04:30.721Z,1.40
2023-01-25T23:07:12.839Z,1.40
2023-01-25T23:09:37.563Z,1.50
2023-01-25T23:12:02.074Z,1.40
2023-01-25T23:14:44.128Z,1.40
2023-01-25T23:17:27.034Z,1.30
2023-01-25T23:19:51.809Z,1.20
2023-01-25T23:22:16.615Z,1.20
2023-01-25T23:24:41.596Z,1.30
2023-01-25T23:27:06.281Z,1.40
2023-01-25T23:29:30.795Z,1.30
2023-01-25T23:31:55.278Z,1.20
2023-01-25T23:34:21.266Z,1.20
2023-01-25T23:36:45.780Z,1.20
2023-01-25T23:39:13.611Z,1.20
2023-01-25T23:41:38.227Z,1.30
2023-01-25T23:44:02.740Z,1.10
2023-01-25T23:46:28.506Z,1.10
2023-01-25T23:48:53.135Z,1.20
2023-01-25T23:51:20.125Z,1.20
2023-01-25T23:53:44.992Z,1.20
2023-01-25T23:56:13.370Z,1.00
2023-01-25T23:58:39.295Z,1.00
